Time;durP1;ratioP1;P1;durP2;ratioP2;P2;SDS_P1;SDS_P2;PMS_P1;PMS_P2;Temp;Humidity;BMP_temperature;BMP_pressure;BME280_temperature;BME280_humidity;BME280_pressure;Samples;Min_cycle;Max_cycle;Signal;HPM_P1;HPM_P2
2023/02/05 00:01:51;;;;;;;9.73;6.50;;;;;;;3.58;61.50;98080.59;4968141;28;20526;-68
2023/02/05 00:04:17;;;;;;;10.90;5.83;;;;;;;3.45;61.68;98078.69;4967779;28;20181;-68
2023/02/05 00:06:43;;;;;;;9.63;6.87;;;;;;;3.66;60.98;98081.56;4967585;28;20212;-69
2023/02/05 00:09:08;;;;;;;8.87;6.00;;;;;;;3.64;61.08;98074.56;4967975;28;20673;-69
2023/02/05 00:11:34;;;;;;;7.00;6.30;;;;;;;3.69;61.18;98078.13;4967793;28;20417;-68
2023/02/05 00:13:59;;;;;;;9.80;6.47;;;;;;;3.58;61.03;98078.00;4967887;28;20271;-70
2023/02/05 00:16:25;;;;;;;9.33;7.40;;;;;;;3.63;61.07;98075.44;4967667;28;20204;-68
2023/02/05 00:18:51;;;;;;;10.57;7.77;;;;;;;3.24;62.35;98067.25;4967925;28;20170;-69
2023/02/05 00:21:18;;;;;;;11.70;7.00;;;;;;;3.15;62.57;98070.59;4968277;28;20248;-69
2023/02/05 00:23:44;;;;;;;10.10;7.57;;;;;;;2.89;63.66;98082.34;4968034;28;20413;-69
2023/02/05 00:26:16;;;;;;;10.80;8.40;;;;;;;2.99;63.69;98072.97;4967767;28;20423;-70
2023/02/05 00:28:42;;;;;;;12.63;8.27;;;;;;;2.93;63.80;98086.75;4970478;28;20170;-68
2023/02/05 00:31:11;;;;;;;13.70;9.17;;;;;;;3.08;63.20;98079.16;4967609;28;20417;-69
2023/02/05 00:33:37;;;;;;;12.27;8.20;;;;;;;3.31;62.31;98079.44;4967563;28;20288;-67
2023/02/05 00:36:03;;;;;;;11.37;6.63;;;;;;;2.80;63.52;98075.31;4967381;28;20504;-69
2023/02/05 00:38:28;;;;;;;11.10;8.00;;;;;;;2.97;63.25;98080.72;4967746;28;20242;-68
2023/02/05 00:40:54;;;;;;;10.07;7.80;;;;;;;3.08;63.00;98071.38;4967799;28;20181;-68
2023/02/05 00:43:19;;;;;;;8.10;7.30;;;;;;;2.92;63.52;98069.41;4967517;28;20523;-68
2023/02/05 00:45:45;;;;;;;9.53;6.87;;;;;;;3.16;62.45;98066.25;4950276;28;20178;-68
2023/02/05 00:48:10;;;;;;;7.47;6.60;;;;;;;3.24;62.11;98062.06;4951403;28;20198;-68
2023/02/05 00:50:36;;;;;;;9.27;7.00;;;;;;;3.24;62.21;98062.06;4952197;28;20297;-68
2023/02/05 00:53:02;;;;;;;8.67;7.20;;;;;;;3.12;62.38;98062.78;4952420;28;21129;-68
2023/02/05 00:55:27;;;;;;;8.80;7.30;;;;;;;3.02;62.73;98047.94;4952432;28;20185;-68
2023/02/05 00:57:53;;;;;;;7.43;6.10;;;;;;;2.95;63.41;98059.06;4951918;28;20572;-68
2023/02/05 01:00:19;;;;;;;9.57;6.90;;;;;;;3.10;62.48;98064.47;4951789;28;20174;-68
2023/02/05 01:02:45;;;;;;;10.40;7.10;;;;;;;3.26;62.23;98062.94;4950552;29;20227;-67
2023/02/05 01:05:10;;;;;;;9.77;8.27;;;;;;;3.10;62.57;98069.66;4951930;28;20182;-68
2023/02/05 01:07:36;;;;;;;13.03;7.50;;;;;;;3.23;62.20;98070.66;4951737;28;20549;-68
2023/02/05 01:10:02;;;;;;;12.70;8.43;;;;;;;3.10;62.21;98074.84;4952070;28;20873;-68
2023/02/05 01:12:27;;;;;;;11.60;8.97;;;;;;;2.97;63.01;98071.22;4951877;28;20210;-68
2023/02/05 01:14:53;;;;;;;14.07;9.80;;;;;;;3.03;63.07;98070.44;4951605;28;20189;-68
2023/02/05 01:17:19;;;;;;;16.77;9.20;;;;;;;3.12;62.73;98070.56;4951185;28;20702;-68
2023/02/05 01:19:44;;;;;;;13.17;8.50;;;;;;;3.07;63.22;98068.75;4951899;28;20273;-67
2023/02/05 01:22:10;;;;;;;13.00;8.80;;;;;;;3.13;63.17;98066.22;4951552;28;20572;-67
2023/02/05 01:24:37;;;;;;;10.37;8.10;;;;;;;3.08;63.25;98054.94;4951345;28;20245;-67
2023/02/05 01:27:02;;;;;;;11.30;8.30;;;;;;;3.04;62.83;98055.75;4951162;28;20198;-68
2023/02/05 01:29:29;;;;;;;7.70;6.90;;;;;;;2.72;63.71;98054.47;4951397;28;20421;-68
2023/02/05 01:31:54;;;;;;;10.67;6.87;;;;;;;2.74;64.30;98050.19;4951145;28;20211;-68
2023/02/05 01:34:20;;;;;;;9.13;7.00;;;;;;;2.88;63.39;98050.38;4951376;29;21107;-68
2023/02/05 01:36:46;;;;;;;11.40;7.17;;;;;;;3.02;62.80;98049.66;4951044;28;20567;-68
2023/02/05 01:39:11;;;;;;;15.27;7.80;;;;;;;2.93;62.59;98050.44;4951159;28;20193;-68
2023/02/05 01:41:40;;;;;;;11.60;7.10;;;;;;;3.04;62.39;98055.75;4951273;28;20182;-70
2023/02/05 01:44:17;;;;;;;12.63;8.20;;;;;;;3.06;62.50;98048.84;4955116;28;20174;-69
2023/02/05 01:46:46;;;;;;;12.13;8.80;;;;;;;3.03;62.88;98047.09;4970077;28;20440;-68
2023/02/05 01:49:20;;;;;;;13.30;8.27;;;;;;;2.96;62.74;98046.16;4970329;28;20431;-67
2023/02/05 01:51:47;;;;;;;14.63;7.20;;;;;;;3.06;62.95;98043.66;4970337;28;20413;-67
2023/02/05 01:54:15;;;;;;;8.40;6.97;;;;;;;2.81;63.04;98035.59;4969881;28;20424;-67
2023/02/05 01:56:45;;;;;;;7.73;6.73;;;;;;;3.01;62.52;98037.56;4969619;28;20572;-68
2023/02/05 01:59:16;;;;;;;11.97;6.03;;;;;;;2.95;62.66;98034.03;4969214;28;20405;-68
2023/02/05 02:01:43;;;;;;;8.07;6.63;;;;;;;2.85;62.68;98026.97;4969760;28;20475;-68
2023/02/05 02:04:09;;;;;;;8.20;6.30;;;;;;;2.87;62.37;98025.28;4969936;28;20472;-68
2023/02/05 02:06:36;;;;;;;11.13;6.10;;;;;;;3.03;62.00;98028.06;4969483;28;20437;-70
2023/02/05 02:09:05;;;;;;;6.73;5.70;;;;;;;2.92;62.39;98031.38;4969895;28;21247;-68
2023/02/05 02:11:36;;;;;;;8.07;5.70;;;;;;;2.82;62.73;98016.59;4969829;28;20413;-68
2023/02/05 02:14:06;;;;;;;7.23;5.63;;;;;;;2.88;62.52;98016.66;4969765;28;20420;-67
2023/02/05 02:16:35;;;;;;;9.20;6.83;;;;;;;2.90;62.42;98009.75;4969443;28;20429;-68
2023/02/05 02:19:07;;;;;;;7.23;5.63;;;;;;;2.79;62.50;98013.06;4969733;28;20413;-69
2023/02/05 02:21:42;;;;;;;8.17;6.00;;;;;;;2.73;62.73;98012.13;4969815;28;20442;-67
2023/02/05 02:24:33;;;;;;;8.57;6.57;;;;;;;2.67;62.71;98014.66;4969613;28;20420;-68
2023/02/05 02:27:14;;;;;;;9.60;6.73;;;;;;;2.53;63.25;98005.84;4971340;28;20445;-68
2023/02/05 02:29:45;;;;;;;8.27;6.30;;;;;;;2.69;63.32;98000.00;4969592;28;20483;-68
2023/02/05 02:32:22;;;;;;;8.90;7.23;;;;;;;2.63;63.05;97994.72;4969718;28;20456;-67
2023/02/05 02:34:54;;;;;;;11.50;8.77;;;;;;;2.60;63.01;97994.72;4969563;28;20873;-68
2023/02/05 02:37:47;;;;;;;7.77;6.83;;;;;;;2.65;62.76;97987.84;4968993;28;20433;-68
2023/02/05 02:40:37;;;;;;;9.17;7.73;;;;;;;2.72;62.60;97992.25;4969255;28;20691;-68
2023/02/05 02:43:09;;;;;;;8.87;7.00;;;;;;;2.63;63.09;97991.28;4969160;28;20424;-68
2023/02/05 02:45:40;;;;;;;8.03;5.87;;;;;;;2.41;63.28;97987.50;4953251;28;21001;-68
2023/02/05 02:48:06;;;;;;;6.63;6.03;;;;;;;2.30;63.33;97995.16;4949665;28;20799;-68
2023/02/05 02:50:40;;;;;;;6.80;6.10;;;;;;;2.41;63.61;97991.00;4949872;28;20422;-69
2023/02/05 02:53:16;;;;;;;9.40;6.37;;;;;;;2.27;63.99;97984.75;4949777;28;20899;-68
2023/02/05 02:55:43;;;;;;;8.07;5.80;;;;;;;2.12;64.81;97985.38;4949712;28;20483;-69
2023/02/05 02:58:24;;;;;;;8.10;6.67;;;;;;;2.09;64.47;97968.06;4949530;28;20619;-69
2023/02/05 03:00:51;;;;;;;10.67;6.93;;;;;;;1.84;65.25;97974.63;4949756;28;20437;-69
2023/02/05 03:03:19;;;;;;;7.40;5.70;;;;;;;1.75;66.05;97974.47;4949833;28;20416;-69
2023/02/05 03:05:47;;;;;;;10.87;7.10;;;;;;;1.92;66.02;97977.31;4949643;28;20418;-68
2023/02/05 03:08:29;;;;;;;9.30;7.00;;;;;;;1.66;65.94;97971.72;4949653;28;21010;-67
2023/02/05 03:11:05;;;;;;;6.50;5.73;;;;;;;1.62;66.92;97973.38;4949480;28;20418;-68
2023/02/05 03:13:31;;;;;;;11.93;7.23;;;;;;;1.88;65.52;97968.63;4949460;28;20457;-68
2023/02/05 03:15:57;;;;;;;9.00;6.37;;;;;;;2.21;64.27;97963.94;4948960;28;20934;-68
2023/02/05 03:18:23;;;;;;;6.60;5.87;;;;;;;2.25;64.01;97966.59;4949320;28;20188;-68
2023/02/05 03:20:58;;;;;;;6.60;5.70;;;;;;;1.89;64.77;97972.97;4949520;28;20182;-69
2023/02/05 03:23:25;;;;;;;9.63;7.03;;;;;;;1.72;66.08;97976.13;4950147;28;20401;-69
2023/02/05 03:25:51;;;;;;;7.93;6.13;;;;;;;1.42;66.60;97978.22;4949136;28;20410;-69
2023/02/05 03:28:17;;;;;;;7.20;6.50;;;;;;;1.45;66.52;97969.66;4947831;28;20532;-68
2023/02/05 03:31:14;;;;;;;9.87;7.10;;;;;;;1.35;67.07;97971.19;4949530;28;20197;-69
2023/02/05 03:34:09;;;;;;;10.10;6.20;;;;;;;1.27;66.39;97975.34;4949388;28;20220;-69
2023/02/05 03:36:54;;;;;;;8.23;5.90;;;;;;;1.24;66.79;97972.72;4948760;28;20430;-69
2023/02/05 03:39:33;;;;;;;9.10;6.60;;;;;;;1.56;65.75;97962.06;4949068;28;20430;-69
2023/02/05 03:42:07;;;;;;;6.80;5.90;;;;;;;1.88;64.32;97968.63;4948989;28;20476;-69
2023/02/05 03:44:55;;;;;;;7.17;6.53;;;;;;;1.84;64.31;97968.53;4956298;28;20425;-68
2023/02/05 03:47:43;;;;;;;9.13;6.87;;;;;;;1.97;64.31;97965.31;4968095;28;20448;-67
2023/02/05 03:50:19;;;;;;;6.40;5.70;;;;;;;2.04;63.92;97967.16;4968300;28;20439;-68
2023/02/05 03:52:50;;;;;;;7.13;6.43;;;;;;;2.02;64.19;97963.66;4968193;28;20823;-68
2023/02/05 03:55:23;;;;;;;7.10;6.13;;;;;;;2.14;63.66;97965.56;4968184;28;20448;-67
2023/02/05 03:57:56;;;;;;;6.83;5.70;;;;;;;1.79;63.90;97965.88;4967805;28;20794;-68
2023/02/05 04:00:23;;;;;;;6.80;6.20;;;;;;;1.19;66.13;97969.19;4968004;28;20420;-69
2023/02/05 04:02:49;;;;;;;5.93;5.27;;;;;;;1.55;64.93;97973.25;4968152;28;20406;-69
2023/02/05 04:05:14;;;;;;;6.77;5.50;;;;;;;1.66;64.54;97972.59;4967903;28;21038;-69
2023/02/05 04:07:40;;;;;;;9.57;5.90;;;;;;;1.68;64.58;97970.03;4967580;28;20217;-69
2023/02/05 04:10:06;;;;;;;6.57;5.87;;;;;;;1.68;64.59;97957.09;4967844;28;20260;-68
2023/02/05 04:12:31;;;;;;;6.53;5.93;;;;;;;1.77;65.02;97957.25;4968020;28;20232;-69
2023/02/05 04:14:57;;;;;;;8.43;6.43;;;;;;;1.59;65.18;97957.81;4967872;28;20550;-68
2023/02/05 04:17:22;;;;;;;6.77;5.83;;;;;;;1.67;65.67;97952.75;4967520;28;20201;-68
2023/02/05 04:19:48;;;;;;;8.57;6.43;;;;;;;1.61;65.55;97961.31;4968281;28;20252;-68
2023/02/05 04:22:13;;;;;;;7.97;6.77;;;;;;;1.52;65.52;97955.09;4969854;28;20169;-68
2023/02/05 04:24:39;;;;;;;6.83;6.00;;;;;;;1.48;66.15;97951.56;4972021;28;20220;-68
2023/02/05 04:27:04;;;;;;;7.53;6.77;;;;;;;1.33;67.25;97959.09;4971547;28;20208;-68
2023/02/05 04:29:30;;;;;;;8.50;6.43;;;;;;;1.36;66.75;97959.13;4971833;28;20174;-68
2023/02/05 04:31:55;;;;;;;7.20;6.47;;;;;;;1.54;66.00;97951.69;4971619;28;20498;-68
2023/02/05 04:34:21;;;;;;;6.40;5.80;;;;;;;1.51;66.05;97953.34;4971615;28;20192;-68
2023/02/05 04:36:46;;;;;;;8.00;6.53;;;;;;;1.48;65.67;97951.56;4971362;28;20554;-68
2023/02/05 04:39:12;;;;;;;6.00;5.40;;;;;;;1.39;66.53;97948.84;4971707;28;20276;-68
2023/02/05 04:41:37;;;;;;;9.00;5.73;;;;;;;1.53;64.96;97943.91;4971503;28;20174;-68
2023/02/05 04:44:03;;;;;;;9.97;6.50;;;;;;;1.34;65.57;97933.22;4967832;28;20166;-67
2023/02/05 04:46:28;;;;;;;6.90;5.47;;;;;;;1.30;66.01;97918.53;4951808;28;20337;-67
2023/02/05 04:48:54;;;;;;;8.10;6.20;;;;;;;1.36;65.55;97926.38;4952073;28;20177;-67
2023/02/05 04:51:19;;;;;;;7.90;6.40;;;;;;;1.43;65.17;97925.63;4951663;28;20205;-67
2023/02/05 04:53:45;;;;;;;6.17;5.43;;;;;;;1.30;65.90;97940.91;4951633;28;20619;-68
2023/02/05 04:56:15;;;;;;;6.00;5.50;;;;;;;1.16;65.96;97941.56;4951446;28;20179;-68
2023/02/05 04:58:42;;;;;;;10.37;7.33;;;;;;;1.46;65.17;97943.81;4951881;28;20690;-68
2023/02/05 05:01:17;;;;;;;7.33;5.40;;;;;;;1.20;65.87;97947.66;4951949;28;21068;-68
2023/02/05 05:03:43;;;;;;;6.43;5.60;;;;;;;1.42;64.87;97942.00;4951875;28;20960;-69
2023/02/05 05:06:09;;;;;;;6.37;5.30;;;;;;;1.33;66.42;97936.69;4951310;28;20424;-68
2023/02/05 05:08:35;;;;;;;7.80;6.30;;;;;;;1.44;65.92;97934.25;4951643;28;20413;-68
2023/02/05 05:11:07;;;;;;;8.53;6.33;;;;;;;1.31;65.07;97948.72;4951759;28;20170;-68
2023/02/05 05:13:34;;;;;;;10.50;5.97;;;;;;;1.25;65.97;97952.06;4951736;28;20452;-68
2023/02/05 05:16:00;;;;;;;7.37;6.40;;;;;;;1.23;65.94;97955.47;4951404;28;20964;-69
2023/02/05 05:18:26;;;;;;;5.97;5.37;;;;;;;1.46;66.12;97961.94;4951617;28;20804;-68
2023/02/05 05:20:52;;;;;;;6.70;6.00;;;;;;;1.41;66.71;97962.66;4951799;28;20410;-68
2023/02/05 05:23:17;;;;;;;6.33;5.50;;;;;;;1.43;66.15;97948.91;4951405;28;20588;-68
2023/02/05 05:25:45;;;;;;;6.90;5.87;;;;;;;1.21;67.04;97952.00;4951414;28;20186;-69
2023/02/05 05:28:11;;;;;;;9.10;6.47;;;;;;;1.37;66.39;97956.59;4950991;28;20284;-68
2023/02/05 05:30:38;;;;;;;9.13;6.23;;;;;;;1.47;65.81;97961.06;4951207;28;20414;-68
2023/02/05 05:33:04;;;;;;;9.03;6.40;;;;;;;1.46;65.85;97967.09;4950052;28;20988;-68
2023/02/05 05:35:30;;;;;;;6.47;5.87;;;;;;;1.45;65.93;97969.66;4951275;28;20422;-68
2023/02/05 05:37:56;;;;;;;7.37;6.60;;;;;;;1.31;66.34;97955.59;4950844;28;20337;-69
2023/02/05 05:45:57;;;;;;;6.47;5.87;;;;;;;1.05;67.30;97950.81;4969369;28;20428;-68
2023/02/05 05:48:22;;;;;;;6.60;6.00;;;;;;;0.89;67.46;97951.38;4970157;28;20401;-67
2023/02/05 05:50:48;;;;;;;7.70;6.83;;;;;;;1.10;66.01;97956.09;4969987;28;20545;-67
2023/02/05 05:53:14;;;;;;;8.27;6.87;;;;;;;0.94;66.83;97948.03;4970006;28;20201;-69
2023/02/05 05:55:40;;;;;;;8.37;6.73;;;;;;;1.05;66.70;97958.59;4969933;28;20621;-68
2023/02/05 05:58:06;;;;;;;16.07;7.23;;;;;;;1.18;66.04;97972.59;4969859;28;20248;-68
2023/02/05 06:00:31;;;;;;;7.20;6.50;;;;;;;1.16;66.05;97966.53;4970244;28;20413;-68
2023/02/05 06:02:57;;;;;;;7.13;6.00;;;;;;;1.24;65.44;97972.72;4970046;28;20170;-67
2023/02/05 06:05:22;;;;;;;8.93;7.00;;;;;;;1.20;66.57;97984.72;4969983;28;20648;-68
2023/02/05 06:07:48;;;;;;;21.40;7.00;;;;;;;1.34;66.46;97973.75;4969413;28;20245;-70
2023/02/05 06:10:13;;;;;;;9.30;7.00;;;;;;;0.93;67.25;97969.56;4969913;28;20539;-67
2023/02/05 06:12:39;;;;;;;7.20;6.50;;;;;;;1.18;65.45;97975.19;4969612;28;20586;-67
2023/02/05 06:15:05;;;;;;;7.70;6.17;;;;;;;0.71;66.91;97963.13;4969774;28;20169;-67
2023/02/05 06:17:31;;;;;;;7.23;5.90;;;;;;;0.96;66.51;97959.28;4969386;28;20213;-67
2023/02/05 06:19:56;;;;;;;8.23;6.67;;;;;;;1.00;65.88;97963.66;4969690;28;20460;-68
2023/02/05 06:22:21;;;;;;;11.37;6.10;;;;;;;1.12;65.74;97970.78;4969733;28;20255;-67
2023/02/05 06:24:47;;;;;;;8.97;7.47;;;;;;;0.34;68.73;97964.06;4969410;28;20681;-68
2023/02/05 06:27:12;;;;;;;10.33;6.70;;;;;;;0.61;68.07;97972.41;4969049;28;20284;-67
2023/02/05 06:29:38;;;;;;;10.30;7.53;;;;;;;0.91;66.47;97971.25;4969447;28;20169;-69
2023/02/05 06:32:03;;;;;;;8.33;6.77;;;;;;;0.36;68.07;97962.38;4969184;28;20199;-68
2023/02/05 06:34:29;;;;;;;7.83;6.43;;;;;;;0.55;68.15;97967.09;4969453;28;20991;-68
2023/02/05 06:36:54;;;;;;;14.60;7.73;;;;;;;0.94;66.93;97958.38;4968998;28;20193;-68
2023/02/05 06:39:20;;;;;;;8.80;7.00;;;;;;;0.75;67.90;97964.88;4969085;28;20564;-67
2023/02/05 06:41:46;;;;;;;7.23;6.53;;;;;;;0.86;66.63;97972.00;4969006;28;20184;-68
2023/02/05 06:44:11;;;;;;;6.90;6.30;;;;;;;0.47;67.96;97970.34;4968445;28;20894;-68
2023/02/05 06:46:36;;;;;;;7.70;6.13;;;;;;;0.36;68.88;97967.53;4968766;28;20189;-69
2023/02/05 06:49:02;;;;;;;11.77;6.63;;;;;;;0.63;68.50;97978.44;4969286;28;20222;-68
2023/02/05 06:51:27;;;;;;;14.77;8.00;;;;;;;1.80;72.81;97967.66;4968967;28;20205;-69
2023/02/05 06:53:56;;;;;;;32.30;8.67;;;;;;;1.47;65.73;97958.47;4969230;28;20213;-68
2023/02/05 06:56:22;;;;;;;17.53;7.60;;;;;;;1.10;66.71;97956.09;4968629;28;20236;-69
2023/02/05 06:58:48;;;;;;;8.57;6.97;;;;;;;0.79;67.44;97960.69;4968983;28;20429;-69
2023/02/05 07:01:14;;;;;;;7.57;6.67;;;;;;;0.63;68.58;97959.47;4968741;28;20416;-68
2023/02/05 07:03:39;;;;;;;12.53;7.47;;;;;;;0.63;68.74;97955.19;4968782;28;20182;-70
2023/02/05 07:06:05;;;;;;;7.33;6.60;;;;;;;0.71;68.17;97957.06;4968392;28;20169;-70
2023/02/05 07:08:31;;;;;;;6.50;5.50;;;;;;;0.62;68.89;97957.75;4968659;28;20268;-69
2023/02/05 07:10:57;;;;;;;7.60;6.90;;;;;;;0.97;67.60;97957.56;4968832;28;20488;-69
2023/02/05 07:13:22;;;;;;;8.17;6.60;;;;;;;0.90;67.93;97966.94;4968480;28;20710;-68
2023/02/05 07:15:48;;;;;;;7.30;6.53;;;;;;;0.47;69.11;97958.28;4968627;28;20173;-69
2023/02/05 07:18:13;;;;;;;8.70;6.33;;;;;;;0.71;68.54;97964.78;4968439;28;20240;-70
2023/02/05 07:20:39;;;;;;;8.70;7.20;;;;;;;1.10;66.55;97961.25;4968747;28;20444;-68
2023/02/05 07:23:04;;;;;;;8.20;7.07;;;;;;;1.19;66.83;97969.19;4966308;28;20327;-70
2023/02/05 07:25:35;;;;;;;7.40;6.70;;;;;;;1.45;66.06;97970.50;4967896;28;20162;-70
2023/02/05 07:28:01;;;;;;;9.57;6.90;;;;;;;1.31;66.51;97966.81;4967742;28;20590;-69
2023/02/05 07:30:27;;;;;;;7.53;6.63;;;;;;;0.93;67.79;97979.91;4967905;28;20421;-70
2023/02/05 07:32:52;;;;;;;9.97;8.93;;;;;;;0.63;68.83;97975.84;4967878;28;20457;-70
2023/02/05 07:35:18;;;;;;;8.23;7.27;;;;;;;0.47;69.83;97966.03;4967708;28;20182;-70
2023/02/05 07:37:43;;;;;;;20.83;8.13;;;;;;;2.26;74.00;97967.44;4967825;28;20256;-69
2023/02/05 07:40:09;;;;;;;12.67;8.63;;;;;;;1.59;66.65;97975.94;4967914;28;20228;-68
2023/02/05 07:42:34;;;;;;;10.00;7.83;;;;;;;1.09;66.59;97982.75;4967725;28;20537;-69
2023/02/05 07:45:00;;;;;;;7.87;7.10;;;;;;;1.50;65.63;97970.59;4967570;28;20170;-70
2023/02/05 07:47:25;;;;;;;19.03;7.93;;;;;;;2.30;63.39;97966.66;4967758;28;20196;-69
2023/02/05 07:49:51;;;;;;;8.10;7.27;;;;;;;3.24;60.47;97960.00;4967860;28;20185;-69
2023/02/05 07:52:16;;;;;;;8.37;7.40;;;;;;;2.82;60.91;97962.13;4967558;28;20565;-68
2023/02/05 07:54:41;;;;;;;10.13;6.57;;;;;;;2.10;62.73;97968.94;4967702;28;20174;-70
2023/02/05 07:57:07;;;;;;;50.53;10.37;;;;;;;2.49;62.50;97979.00;4966542;28;20208;-68
2023/02/05 07:59:32;;;;;;;56.27;11.10;;;;;;;3.53;59.95;97970.66;4967431;28;20186;-69
2023/02/05 08:01:58;;;;;;;37.60;9.97;;;;;;;4.77;54.72;97963.69;4967153;28;20200;-68
2023/02/05 08:04:23;;;;;;;17.40;8.77;;;;;;;6.19;51.40;97950.88;4967257;28;20260;-68
2023/02/05 08:06:49;;;;;;;7.07;5.93;;;;;;;6.88;48.60;97946.34;4965896;28;20197;-68
2023/02/05 08:09:15;;;;;;;8.40;6.43;;;;;;;6.44;49.38;97941.28;4960625;28;20283;-70
2023/02/05 08:11:41;;;;;;;7.00;6.40;;;;;;;6.65;49.12;97942.94;4966680;28;20177;-69
2023/02/05 08:14:06;;;;;;;9.27;6.70;;;;;;;7.07;47.91;97925.38;4966499;28;20487;-71
2023/02/05 08:16:32;;;;;;;9.07;7.70;;;;;;;6.05;51.35;97927.47;4965753;28;20201;-68
2023/02/05 08:18:57;;;;;;;7.23;6.50;;;;;;;5.32;53.09;97936.09;4966463;28;20637;-70
2023/02/05 08:21:23;;;;;;;10.47;6.80;;;;;;;4.97;55.14;97931.69;4965978;28;20677;-70
2023/02/05 08:23:49;;;;;;;7.20;6.50;;;;;;;4.52;56.32;97917.66;4966862;28;20686;-70
2023/02/05 08:26:15;;;;;;;7.97;7.13;;;;;;;4.70;55.85;97916.84;4966599;28;20467;-70
2023/02/05 08:28:41;;;;;;;13.73;8.47;;;;;;;4.28;56.82;97923.59;4966511;28;20207;-72
2023/02/05 08:31:13;;;;;;;8.70;6.63;;;;;;;4.37;56.87;97918.41;4966276;28;20569;-69
2023/02/05 08:33:39;;;;;;;9.07;8.17;;;;;;;4.30;57.26;97914.94;4962777;28;20515;-69
2023/02/05 08:36:05;;;;;;;7.03;6.07;;;;;;;4.22;57.23;97912.28;4965617;28;20437;-69
2023/02/05 08:38:30;;;;;;;8.13;7.20;;;;;;;3.88;58.41;97915.56;4966933;28;20256;-69
2023/02/05 08:40:56;;;;;;;9.80;7.30;;;;;;;3.86;59.10;97918.13;4964148;28;20495;-69
2023/02/05 08:43:22;;;;;;;9.50;6.07;;;;;;;3.88;59.00;97919.03;4966107;28;20321;-69
2023/02/05 08:45:47;;;;;;;8.97;7.43;;;;;;;3.99;59.13;97921.66;4961757;28;20488;-69
2023/02/05 08:48:13;;;;;;;7.93;7.10;;;;;;;3.84;59.53;97918.97;4967058;28;20189;-68
2023/02/05 08:50:39;;;;;;;9.70;7.27;;;;;;;3.61;59.80;97919.66;4965870;28;20248;-69
2023/02/05 08:53:05;;;;;;;7.83;7.10;;;;;;;3.49;60.91;97910.06;4966280;28;20279;-70
2023/02/05 08:55:32;;;;;;;10.77;7.90;;;;;;;3.53;60.99;97919.63;4965543;28;20189;-68
2023/02/05 08:57:57;;;;;;;9.80;8.33;;;;;;;3.60;60.88;97925.72;4964659;28;20474;-70
2023/02/05 09:00:27;;;;;;;10.47;8.27;;;;;;;3.50;61.02;97911.81;4966159;28;20444;-69
2023/02/05 09:02:52;;;;;;;11.60;8.13;;;;;;;3.65;60.79;97921.44;4966368;28;20198;-70
2023/02/05 09:05:18;;;;;;;9.30;8.30;;;;;;;3.68;60.79;97908.47;4966917;28;20460;-70
2023/02/05 09:07:43;;;;;;;10.40;7.90;;;;;;;3.75;60.57;97914.59;4966807;28;20293;-71
2023/02/05 09:10:12;;;;;;;11.17;8.50;;;;;;;3.83;60.27;97905.13;4970586;28;20288;-68
2023/02/05 09:12:37;;;;;;;10.10;6.70;;;;;;;3.60;61.61;97912.75;4970706;28;20205;-71
2023/02/05 09:15:04;;;;;;;15.87;9.37;;;;;;;3.54;61.33;97904.91;4969339;28;20941;-70
2023/02/05 09:17:30;;;;;;;12.27;7.70;;;;;;;3.38;62.13;97896.13;4970118;28;20230;-69
2023/02/05 09:19:55;;;;;;;22.67;9.67;;;;;;;3.44;62.12;97892.72;4970630;28;20976;-68
2023/02/05 09:22:21;;;;;;;9.50;8.10;;;;;;;3.30;62.61;97890.00;4969325;28;20268;-71
2023/02/05 09:24:46;;;;;;;15.10;9.03;;;;;;;3.36;62.28;97882.28;4970370;28;20186;-69
2023/02/05 09:27:13;;;;;;;10.90;8.43;;;;;;;3.34;62.33;97882.25;4967924;28;20243;-69
2023/02/05 09:29:39;;;;;;;8.90;8.10;;;;;;;3.41;62.29;97872.81;4969011;28;20229;-70
2023/02/05 09:32:05;;;;;;;9.33;8.40;;;;;;;3.45;62.91;97866.78;4969743;28;20413;-71
2023/02/05 09:34:31;;;;;;;8.50;7.60;;;;;;;3.37;62.82;97858.91;4970882;28;20435;-70
2023/02/05 09:36:57;;;;;;;9.07;8.17;;;;;;;3.37;63.69;97861.50;4969253;28;20698;-70
2023/02/05 09:39:23;;;;;;;9.10;8.20;;;;;;;3.48;62.67;97852.97;4968807;28;20533;-69
2023/02/05 09:41:59;;;;;;;13.60;9.40;;;;;;;3.44;62.83;97854.66;4970189;28;20193;-69
2023/02/05 09:44:36;;;;;;;14.83;9.60;;;;;;;3.51;62.67;97846.06;4970552;28;20185;-70
2023/02/05 09:47:05;;;;;;;15.33;9.90;;;;;;;3.51;62.80;97848.66;4968646;28;20488;-71
2023/02/05 09:49:52;;;;;;;11.50;9.43;;;;;;;3.67;62.65;97846.19;4970543;28;20443;-68
2023/02/05 09:52:26;;;;;;;12.30;9.00;;;;;;;3.58;62.90;97841.78;4969574;28;21087;-68
2023/02/05 09:55:02;;;;;;;17.97;9.77;;;;;;;3.63;62.92;97852.19;4970323;28;20448;-70
2023/02/05 09:57:34;;;;;;;10.53;8.97;;;;;;;3.64;62.71;97849.63;4967732;28;20464;-69
2023/02/05 10:00:01;;;;;;;11.17;9.50;;;;;;;3.56;63.10;97852.13;4969253;28;20441;-69
2023/02/05 10:02:48;;;;;;;11.93;9.77;;;;;;;3.53;63.25;97848.66;4967049;28;20504;-69
2023/02/05 10:05:15;;;;;;;10.60;9.50;;;;;;;3.47;63.36;97851.22;4967873;28;20433;-69
2023/02/05 10:07:52;;;;;;;10.43;9.43;;;;;;;3.56;63.53;97840.91;4962182;28;20452;-69
2023/02/05 10:10:33;;;;;;;11.90;9.60;;;;;;;3.53;63.47;97831.38;4968981;28;20531;-67
2023/02/05 10:13:29;;;;;;;12.23;9.03;;;;;;;3.56;63.67;97830.50;4964165;28;20468;-69
2023/02/05 10:16:22;;;;;;;9.10;8.20;;;;;;;3.63;63.48;97829.69;4951975;28;20411;-70
2023/02/05 10:19:13;;;;;;;14.60;9.60;;;;;;;3.63;63.92;97823.66;4961545;28;20437;-69
2023/02/05 10:22:12;;;;;;;10.93;8.70;;;;;;;3.70;63.41;97817.63;4969642;28;20416;-70
2023/02/05 10:24:59;;;;;;;14.83;9.77;;;;;;;3.73;63.73;97815.94;4969733;28;20434;-70
2023/02/05 10:27:51;;;;;;;15.60;10.20;;;;;;;3.74;63.98;97811.59;4967658;28;20464;-70
2023/02/05 10:30:29;;;;;;;79.70;18.43;;;;;;;3.76;63.84;97823.72;4968486;28;20433;-70
2023/02/05 10:33:02;;;;;;;26.47;12.03;;;;;;;3.96;63.41;97821.22;4969127;28;20480;-71
2023/02/05 10:35:47;;;;;;;21.93;9.67;;;;;;;3.81;63.87;97808.19;4968773;28;20444;-68
2023/02/05 10:38:21;;;;;;;12.53;9.57;;;;;;;3.81;64.06;97811.63;4968496;28;21258;-71
2023/02/05 10:40:50;;;;;;;11.77;10.07;;;;;;;3.85;63.79;97809.94;4962219;28;20533;-69
2023/02/05 10:43:21;;;;;;;11.07;9.17;;;;;;;3.72;64.16;97784.75;4968225;28;20452;-69
2023/02/05 10:45:48;;;;;;;11.97;10.40;;;;;;;3.65;64.71;97786.44;4967252;28;20444;-70
2023/02/05 10:48:35;;;;;;;22.57;9.37;;;;;;;3.78;64.34;97785.66;4966471;28;20464;-68
2023/02/05 10:51:05;;;;;;;10.13;8.70;;;;;;;3.79;64.67;97781.34;4968110;28;20428;-70
2023/02/05 10:53:32;;;;;;;10.27;8.20;;;;;;;3.76;64.55;97771.81;4969012;28;20552;-68
2023/02/05 10:55:59;;;;;;;8.60;7.70;;;;;;;3.73;65.29;97764.00;4967613;28;20973;-68
2023/02/05 10:58:27;;;;;;;12.77;8.43;;;;;;;3.79;64.88;97771.81;4967899;28;21271;-70
2023/02/05 11:00:53;;;;;;;14.50;9.10;;;;;;;3.89;64.61;97780.50;4968805;28;20421;-69
2023/02/05 11:03:21;;;;;;;10.60;9.50;;;;;;;3.87;64.99;97764.03;4967790;28;20953;-68
2023/02/05 11:05:48;;;;;;;11.60;8.90;;;;;;;3.91;65.13;97763.22;4967616;28;20193;-69
2023/02/05 11:08:30;;;;;;;19.20;9.40;;;;;;;3.99;64.63;97760.63;4967863;28;20469;-70
2023/02/05 11:10:56;;;;;;;48.30;12.90;;;;;;;4.10;64.46;97758.94;4962482;28;20457;-70
2023/02/05 11:13:21;;;;;;;17.53;10.63;;;;;;;3.97;64.65;97759.78;4968548;28;20549;-68
2023/02/05 11:15:54;;;;;;;11.97;8.27;;;;;;;4.05;65.13;97759.81;4966860;28;20181;-67
2023/02/05 11:18:42;;;;;;;12.80;8.60;;;;;;;4.09;64.98;97756.38;4968134;28;20197;-69
2023/02/05 11:21:09;;;;;;;12.73;8.73;;;;;;;4.43;64.78;97744.31;4968734;28;21216;-69
2023/02/05 11:23:39;;;;;;;11.87;8.70;;;;;;;4.33;65.35;97742.56;4968486;28;20413;-69
2023/02/05 11:26:22;;;;;;;10.67;9.57;;;;;;;4.24;65.65;97744.28;4967752;28;20436;-68
2023/02/05 11:28:48;;;;;;;13.13;10.43;;;;;;;4.10;66.53;97745.97;4961397;28;20417;-70
2023/02/05 11:31:27;;;;;;;13.40;8.80;;;;;;;4.09;67.04;97743.38;4967469;28;20441;-70
2023/02/05 11:34:15;;;;;;;21.43;11.77;;;;;;;4.02;67.15;97745.09;4963898;28;21291;-70
2023/02/05 11:36:50;;;;;;;12.53;9.97;;;;;;;4.18;66.89;97739.06;4961970;28;20463;-70
2023/02/05 11:39:35;;;;;;;21.60;9.73;;;;;;;4.19;66.62;97740.78;4966123;28;20446;-69
2023/02/05 11:42:30;;;;;;;18.20;10.80;;;;;;;4.11;67.80;97739.91;4968368;28;20512;-71
2023/02/05 11:44:59;;;;;;;37.53;14.17;;;;;;;4.17;67.61;97732.13;4975713;28;20429;-71
2023/02/05 11:47:32;;;;;;;16.40;9.73;;;;;;;4.06;67.93;97732.97;4966478;28;20758;-70
2023/02/05 11:49:59;;;;;;;13.43;9.20;;;;;;;4.06;68.56;97735.56;4966970;28;20498;-69
2023/02/05 11:52:29;;;;;;;19.20;11.17;;;;;;;4.12;67.66;97730.38;4970015;28;20465;-70